Terminal Aerodrome Forecast
Issued by NWS

Home | Current Version | Previous Version | Text Only | Print | Product List | Glossary On
Versions: 1 2 3 4 5 6 7 8 9 10 11 12 13 14
000
FTUS45 KGGW 110500
TAFSDY
TAF
KSDY 110520Z 1106/1206 VRB06KT P6SM BKN250
     FM111200 36009KT P6SM VCTS BKN100CB
     FM111800 35009KT P6SM SCT180
     FM120300 VRB05KT P6SM SCT160
      AMD LTD TO CLD VIS AND WIND=

USA.gov is the U.S. government's official web portal to all federal, state and local government web resources and services.